Time;durP1;ratioP1;P1;durP2;ratioP2;P2;SDS_P1;SDS_P2;PMS_P1;PMS_P2;Temp;Humidity;BMP_temperature;BMP_pressure;BME280_temperature;BME280_humidity;BME280_pressure;Samples;Min_cycle;Max_cycle;Signal;HPM_P1;HPM_P2
2021/07/01 00:01:56;;;;;;;22.15;6.15;;;15.40;91.10;;;;;;5075186;28;20048;-90
2021/07/01 00:04:23;;;;;;;16.20;6.13;;;15.40;91.20;;;;;;5075089;28;20049;-90
2021/07/01 00:06:49;;;;;;;18.02;6.35;;;15.40;91.10;;;;;;5075259;28;20048;-91
2021/07/01 00:09:15;;;;;;;20.58;6.85;;;15.40;91.10;;;;;;5074419;28;20127;-92
2021/07/01 00:11:46;;;;;;;18.25;6.60;;;15.40;91.30;;;;;;5074911;28;20064;-92
2021/07/01 00:14:12;;;;;;;16.73;5.78;;;15.40;91.40;;;;;;5075890;28;20057;-91
2021/07/01 00:16:39;;;;;;;23.88;7.05;;;15.40;91.40;;;;;;5070630;28;20056;-93
2021/07/01 00:19:07;;;;;;;24.90;7.35;;;15.40;91.50;;;;;;5069132;28;20052;-95
2021/07/01 00:21:32;;;;;;;23.33;7.15;;;15.40;91.70;;;;;;5075759;28;20079;-94
2021/07/01 00:23:59;;;;;;;22.20;7.68;;;15.40;91.70;;;;;;5075720;28;20052;-96
2021/07/01 00:26:28;;;;;;;18.65;6.63;;;15.30;91.80;;;;;;5076187;28;20044;-94
2021/07/01 00:28:54;;;;;;;26.83;8.20;;;15.30;91.60;;;;;;5078030;28;20057;-94
2021/07/01 00:31:19;;;;;;;22.98;7.03;;;15.30;91.80;;;;;;5076103;28;20091;-94
2021/07/01 00:33:45;;;;;;;20.27;6.78;;;15.30;91.80;;;;;;5074207;28;20044;-92
2021/07/01 00:36:12;;;;;;;18.05;6.72;;;15.20;91.70;;;;;;5072436;28;20060;-94
2021/07/01 00:38:39;;;;;;;21.88;6.95;;;15.30;91.90;;;;;;5074618;28;20412;-92
2021/07/01 00:41:04;;;;;;;17.70;6.70;;;15.30;91.90;;;;;;5075598;28;20041;-92
2021/07/01 00:43:30;;;;;;;18.40;6.35;;;15.20;91.90;;;;;;5074727;28;20416;-92
2021/07/01 00:45:56;;;;;;;17.30;6.38;;;15.20;91.80;;;;;;5074259;28;20049;-92
2021/07/01 00:48:21;;;;;;;22.60;7.38;;;15.20;91.70;;;;;;5074245;28;20068;-91
2021/07/01 00:50:50;;;;;;;25.30;7.88;;;15.20;91.90;;;;;;5072715;28;20060;-92
2021/07/01 00:53:16;;;;;;;24.45;7.65;;;15.20;92.00;;;;;;5073922;28;20055;-90
2021/07/01 00:55:41;;;;;;;18.08;6.25;;;15.20;92.10;;;;;;5073882;28;20512;-90
2021/07/01 00:58:07;;;;;;;25.55;8.02;;;15.20;92.10;;;;;;5073791;28;20044;-91
2021/07/01 01:03:18;;;;;;;21.60;7.00;;;15.20;92.30;;;;;;5068481;28;20044;-91
2021/07/01 01:05:44;;;;;;;22.25;7.20;;;15.10;92.20;;;;;;5073084;28;20049;-92
2021/07/01 01:08:10;;;;;;;21.25;7.05;;;15.10;92.30;;;;;;5073094;28;20044;-91
2021/07/01 01:10:36;;;;;;;22.40;6.57;;;15.10;92.30;;;;;;5074402;28;20051;-89
2021/07/01 01:13:01;;;;;;;20.05;7.13;;;15.10;92.20;;;;;;5072432;28;20129;-92
2021/07/01 01:15:27;;;;;;;29.98;8.18;;;15.10;92.20;;;;;;5067685;28;20045;-88
2021/07/01 01:17:55;;;;;;;17.15;6.60;;;15.10;92.30;;;;;;5071308;28;20048;-90
2021/07/01 01:20:20;;;;;;;25.25;7.30;;;15.10;92.20;;;;;;5072908;28;20489;-91
2021/07/01 01:22:46;;;;;;;28.23;7.90;;;15.10;92.20;;;;;;5072696;28;20098;-91
2021/07/01 01:25:12;;;;;;;23.77;7.65;;;15.10;92.30;;;;;;5073036;28;20052;-90
2021/07/01 01:27:38;;;;;;;32.80;8.75;;;15.10;92.70;;;;;;5072158;28;20107;-90
2021/07/01 01:30:06;;;;;;;29.90;8.23;;;15.10;92.40;;;;;;5073429;28;20053;-92
2021/07/01 01:32:32;;;;;;;16.58;5.95;;;15.10;92.40;;;;;;5073076;28;20051;-90
2021/07/01 01:34:57;;;;;;;21.88;7.22;;;15.10;92.30;;;;;;5072131;28;20049;-86
2021/07/01 01:37:23;;;;;;;25.02;7.57;;;15.10;92.40;;;;;;5068029;28;20407;-87
2021/07/01 01:39:50;;;;;;;28.23;8.63;;;15.10;92.40;;;;;;5068544;28;20066;-88
2021/07/01 01:42:17;;;;;;;25.55;8.07;;;15.10;92.50;;;;;;5071960;28;20536;-91
2021/07/01 01:44:42;;;;;;;21.50;6.70;;;15.10;92.50;;;;;;5071211;28;20504;-88
2021/07/01 01:47:19;;;;;;;25.52;8.32;;;15.10;92.40;;;;;;5071462;28;20043;-89
2021/07/01 01:49:49;;;;;;;17.50;6.53;;;15.10;92.50;;;;;;5070156;28;20056;-89
2021/07/01 01:52:15;;;;;;;24.58;8.32;;;15.00;92.40;;;;;;5067754;28;20044;-89
2021/07/01 01:54:41;;;;;;;19.10;7.05;;;15.10;92.60;;;;;;5060423;28;20059;-89
2021/07/01 01:57:07;;;;;;;26.17;8.90;;;15.10;92.50;;;;;;5072909;28;20056;-87
2021/07/01 01:59:36;;;;;;;18.13;7.40;;;15.10;92.70;;;;;;5058345;28;20105;-87
2021/07/01 02:02:02;;;;;;;17.40;6.80;;;15.00;92.70;;;;;;5052062;28;20053;-87
2021/07/01 02:04:28;;;;;;;21.48;7.78;;;15.00;92.60;;;;;;5071528;28;20051;-88
2021/07/01 02:06:55;;;;;;;21.98;7.90;;;15.00;92.60;;;;;;5072733;28;20480;-87
2021/07/01 02:09:21;;;;;;;21.23;7.75;;;15.00;92.80;;;;;;5071957;28;20049;-87
2021/07/01 02:11:47;;;;;;;20.77;8.02;;;15.00;92.90;;;;;;5072859;28;20048;-85
2021/07/01 02:14:13;;;;;;;19.45;7.90;;;15.00;92.90;;;;;;5072885;28;20048;-88
2021/07/01 02:16:39;;;;;;;14.38;6.60;;;15.00;93.00;;;;;;5071676;28;20056;-87
2021/07/01 02:19:06;;;;;;;21.60;8.65;;;15.00;92.80;;;;;;5072990;28;20048;-88
2021/07/01 02:21:32;;;;;;;22.52;8.80;;;15.00;93.00;;;;;;5072088;28;20049;-88
2021/07/01 02:23:58;;;;;;;17.58;7.82;;;15.00;93.10;;;;;;5072084;28;20044;-89
2021/07/01 02:26:23;;;;;;;17.45;7.72;;;15.00;93.10;;;;;;5072465;28;20124;-89
2021/07/01 02:28:49;;;;;;;19.13;8.15;;;15.00;93.00;;;;;;5072835;28;20443;-87
2021/07/01 02:31:15;;;;;;;21.40;8.50;;;15.00;93.10;;;;;;5072156;28;20059;-88
2021/07/01 02:33:40;;;;;;;22.08;8.85;;;15.00;93.10;;;;;;5072372;28;20045;-90
2021/07/01 02:36:06;;;;;;;21.73;7.90;;;15.00;93.20;;;;;;5071984;28;20048;-87
2021/07/01 02:38:32;;;;;;;23.15;8.75;;;15.00;93.20;;;;;;5071846;28;20059;-88
2021/07/01 02:40:58;;;;;;;22.95;9.35;;;15.00;93.20;;;;;;5072573;28;20484;-89
2021/07/01 02:43:23;;;;;;;18.88;8.32;;;15.00;93.30;;;;;;5071993;28;20056;-89
2021/07/01 02:45:49;;;;;;;23.77;8.90;;;15.00;93.40;;;;;;5072350;28;20049;-89
2021/07/01 02:48:15;;;;;;;19.65;7.45;;;15.00;93.40;;;;;;5072627;28;20048;-87
2021/07/01 02:50:41;;;;;;;26.33;8.85;;;15.00;93.10;;;;;;5071264;28;20056;-88
2021/07/01 02:53:07;;;;;;;21.67;8.88;;;15.00;93.10;;;;;;5072126;28;20059;-87
2021/07/01 02:55:34;;;;;;;21.23;8.52;;;15.00;93.20;;;;;;5072233;28;20045;-89
2021/07/01 02:58:01;;;;;;;22.67;8.98;;;15.00;93.20;;;;;;5074951;28;20048;-90
2021/07/01 03:00:26;;;;;;;19.67;9.02;;;15.00;93.30;;;;;;5076377;28;20135;-87
2021/07/01 03:02:52;;;;;;;27.40;9.48;;;15.00;93.40;;;;;;5076503;28;20127;-88
2021/07/01 03:05:17;;;;;;;24.60;8.98;;;15.00;93.50;;;;;;5075016;28;20144;-89
2021/07/01 03:07:43;;;;;;;19.30;8.57;;;15.00;93.50;;;;;;5076070;28;20044;-89
2021/07/01 03:10:09;;;;;;;17.42;8.60;;;15.00;93.40;;;;;;5076324;28;20136;-88
2021/07/01 03:12:35;;;;;;;22.67;9.18;;;15.00;93.30;;;;;;5075222;28;20508;-88
2021/07/01 03:15:01;;;;;;;19.50;9.70;;;15.00;93.30;;;;;;5076304;28;20080;-88
2021/07/01 03:17:26;;;;;;;22.65;9.23;;;14.90;93.50;;;;;;5075835;28;20139;-89
2021/07/01 03:19:52;;;;;;;19.90;9.20;;;14.90;93.50;;;;;;5075598;28;20056;-89
2021/07/01 03:22:18;;;;;;;19.27;9.60;;;15.00;93.50;;;;;;5076122;28;20067;-88
2021/07/01 03:24:44;;;;;;;21.65;9.38;;;15.00;93.50;;;;;;5075722;28;20053;-89
2021/07/01 03:27:09;;;;;;;23.48;9.70;;;14.90;93.90;;;;;;5075206;28;20049;-87
2021/07/01 03:29:35;;;;;;;20.50;8.35;;;15.00;93.60;;;;;;5076122;28;20048;-89
2021/07/01 03:32:01;;;;;;;19.25;8.15;;;15.00;93.40;;;;;;5076074;28;20052;-89
2021/07/01 03:34:26;;;;;;;24.17;10.23;;;15.00;93.30;;;;;;5074731;28;20048;-90
2021/07/01 03:36:52;;;;;;;18.02;8.10;;;15.00;93.50;;;;;;5075896;28;20059;-91
2021/07/01 03:39:18;;;;;;;23.95;9.85;;;15.00;93.40;;;;;;5075883;28;20317;-88
2021/07/01 03:41:43;;;;;;;20.23;10.18;;;15.00;93.60;;;;;;5074571;28;20428;-86
2021/07/01 03:44:10;;;;;;;24.98;10.35;;;15.00;93.60;;;;;;5075693;28;20048;-86
2021/07/01 03:46:37;;;;;;;18.77;8.18;;;15.00;93.60;;;;;;5074567;28;20492;-86
2021/07/01 03:49:03;;;;;;;21.55;9.63;;;15.00;93.60;;;;;;5075253;28;20098;-85
2021/07/01 03:51:29;;;;;;;24.33;10.10;;;15.00;93.70;;;;;;5074999;28;20056;-85
2021/07/01 03:53:55;;;;;;;21.65;10.43;;;15.00;93.70;;;;;;5074332;28;20156;-85
2021/07/01 03:56:20;;;;;;;21.23;10.15;;;15.00;93.70;;;;;;5075126;28;20045;-87
2021/07/01 03:58:46;;;;;;;24.58;11.27;;;15.00;93.70;;;;;;5074698;28;20045;-86
2021/07/01 04:01:12;;;;;;;21.55;8.70;;;15.00;93.90;;;;;;5074520;28;20078;-86
2021/07/01 04:03:37;;;;;;;20.52;9.88;;;15.00;93.70;;;;;;5074895;28;20040;-86
2021/07/01 04:06:03;;;;;;;21.95;11.15;;;15.00;93.60;;;;;;5075114;28;20128;-86
2021/07/01 04:08:29;;;;;;;19.42;9.45;;;15.00;93.80;;;;;;5073860;28;20053;-84
2021/07/01 04:10:55;;;;;;;24.92;11.98;;;15.00;93.70;;;;;;5074718;28;20408;-84
2021/07/01 04:13:21;;;;;;;24.95;11.57;;;15.00;93.90;;;;;;5074810;28;20049;-84
2021/07/01 04:15:47;;;;;;;17.40;9.45;;;15.00;94.00;;;;;;5074246;28;20048;-83
2021/07/01 04:18:14;;;;;;;22.42;11.80;;;15.00;93.90;;;;;;5074776;28;20457;-84
2021/07/01 04:20:41;;;;;;;18.08;10.70;;;15.00;94.00;;;;;;5074482;28;20045;-84
2021/07/01 04:23:08;;;;;;;21.30;9.82;;;15.00;94.00;;;;;;5074021;28;20059;-85
2021/07/01 04:25:34;;;;;;;24.70;12.10;;;15.00;93.90;;;;;;5074226;28;20515;-86
2021/07/01 04:28:01;;;;;;;20.73;10.88;;;15.00;94.10;;;;;;5074695;28;20059;-85
2021/07/01 04:30:27;;;;;;;21.98;11.90;;;15.00;94.20;;;;;;5073453;28;20077;-86
2021/07/01 04:32:53;;;;;;;20.38;10.70;;;15.00;94.20;;;;;;5073985;28;20420;-86
2021/07/01 04:35:19;;;;;;;20.33;10.32;;;15.00;94.10;;;;;;5074431;28;20048;-86
2021/07/01 04:37:44;;;;;;;23.23;10.85;;;15.00;94.00;;;;;;5073690;28;20049;-88
2021/07/01 04:40:11;;;;;;;16.50;9.00;;;15.00;93.80;;;;;;5074267;28;20051;-86
2021/07/01 04:42:37;;;;;;;19.52;10.13;;;15.00;93.60;;;;;;5074139;28;20148;-88
2021/07/01 04:45:08;;;;;;;23.45;12.15;;;15.00;93.60;;;;;;5073731;28;20049;-88
2021/07/01 04:47:35;;;;;;;16.55;9.07;;;15.00;93.80;;;;;;5073706;28;20508;-86
2021/07/01 04:50:03;;;;;;;26.20;12.93;;;15.00;93.60;;;;;;5073698;28;20375;-87
2021/07/01 04:52:29;;;;;;;23.10;11.90;;;15.10;93.70;;;;;;5074112;28;20057;-86
2021/07/01 04:54:55;;;;;;;24.50;11.95;;;15.10;93.90;;;;;;5074025;28;20070;-86
2021/07/01 04:57:20;;;;;;;20.80;10.52;;;15.10;94.00;;;;;;5073388;28;20052;-87
2021/07/01 04:59:46;;;;;;;17.90;9.82;;;15.10;94.20;;;;;;5073869;28;20450;-87
2021/07/01 05:02:12;;;;;;;16.42;8.65;;;15.10;93.70;;;;;;5073547;28;20059;-87
2021/07/01 05:04:37;;;;;;;18.77;9.48;;;15.10;93.50;;;;;;5073183;28;20499;-88
2021/07/01 05:07:03;;;;;;;17.75;10.07;;;15.10;93.20;;;;;;5073955;28;20048;-89
2021/07/01 05:09:29;;;;;;;25.15;12.68;;;15.10;93.40;;;;;;5073748;28;20047;-89
2021/07/01 05:11:54;;;;;;;24.25;12.50;;;15.10;93.70;;;;;;5072903;28;20480;-88
2021/07/01 05:14:20;;;;;;;24.42;11.63;;;15.10;93.80;;;;;;5074072;28;20051;-87
2021/07/01 05:16:47;;;;;;;25.23;12.57;;;15.20;93.60;;;;;;5072790;28;20055;-88
2021/07/01 05:19:13;;;;;;;22.13;10.05;;;15.10;93.70;;;;;;5072523;28;20041;-88
2021/07/01 05:21:40;;;;;;;19.33;9.73;;;15.20;93.50;;;;;;5072736;28;20060;-87
2021/07/01 05:24:06;;;;;;;23.42;11.43;;;15.20;93.30;;;;;;5073438;28;20435;-87
2021/07/01 05:26:31;;;;;;;15.25;8.52;;;15.20;93.40;;;;;;5071772;28;20048;-87
2021/07/01 05:28:57;;;;;;;22.23;10.80;;;15.20;93.00;;;;;;5073237;28;20056;-89
2021/07/01 05:31:22;;;;;;;17.92;8.65;;;15.20;93.10;;;;;;5072864;28;20071;-88
2021/07/01 05:33:48;;;;;;;20.40;9.20;;;15.20;92.90;;;;;;5072234;28;20056;-88
2021/07/01 05:36:14;;;;;;;25.20;11.82;;;15.20;92.70;;;;;;5071158;28;20052;-88
2021/07/01 05:38:40;;;;;;;24.55;11.45;;;15.20;92.90;;;;;;5072358;28;20049;-88
2021/07/01 05:41:05;;;;;;;22.15;11.05;;;15.20;93.00;;;;;;5072672;28;20452;-88
2021/07/01 05:43:31;;;;;;;20.00;11.65;;;15.20;93.10;;;;;;5073336;28;20047;-89
2021/07/01 05:45:56;;;;;;;28.20;13.98;;;15.20;93.20;;;;;;5073017;28;20049;-87
2021/07/01 05:48:26;;;;;;;26.02;13.00;;;15.20;93.50;;;;;;5072925;28;20041;-83
2021/07/01 05:51:01;;;;;;;27.63;12.75;;;15.30;93.70;;;;;;5072754;28;20056;-84
2021/07/01 05:53:31;;;;;;;20.92;11.10;;;15.30;93.50;;;;;;5072016;28;20048;-83
2021/07/01 05:55:58;;;;;;;19.77;10.23;;;15.20;93.10;;;;;;5073291;28;20048;-83
2021/07/01 05:58:23;;;;;;;28.67;13.50;;;15.20;92.90;;;;;;5072855;28;20049;-89
2021/07/01 06:00:49;;;;;;;21.85;11.48;;;15.30;93.10;;;;;;5072565;28;20152;-89
2021/07/01 06:03:15;;;;;;;17.58;9.50;;;15.20;93.20;;;;;;5074147;28;20102;-92
2021/07/01 06:05:44;;;;;;;30.85;13.63;;;15.30;92.70;;;;;;5072761;28;20048;-88
2021/07/01 06:08:12;;;;;;;24.30;12.05;;;15.30;93.10;;;;;;5065418;28;20045;-87
2021/07/01 06:10:44;;;;;;;20.00;10.88;;;15.30;93.30;;;;;;5071880;28;20067;-87
2021/07/01 06:13:11;;;;;;;27.40;12.80;;;15.30;93.10;;;;;;5072405;28;20059;-86
2021/07/01 06:15:37;;;;;;;20.00;10.60;;;15.30;93.20;;;;;;5071686;28;20094;-86
2021/07/01 06:18:03;;;;;;;25.17;11.65;;;15.30;93.00;;;;;;5072316;28;20048;-87
2021/07/01 06:20:30;;;;;;;26.75;12.75;;;15.30;93.00;;;;;;5072212;28;20135;-86
2021/07/01 06:22:57;;;;;;;19.92;11.75;;;15.40;93.20;;;;;;5071479;28;20386;-86
2021/07/01 06:25:23;;;;;;;21.42;11.23;;;15.30;93.20;;;;;;5072015;28;20102;-85
2021/07/01 06:27:49;;;;;;;22.42;11.20;;;15.40;93.00;;;;;;5072263;28;20044;-85
2021/07/01 06:30:23;;;;;;;19.20;10.07;;;15.40;93.00;;;;;;5071737;28;20098;-86
2021/07/01 06:32:53;;;;;;;26.35;14.02;;;15.40;93.00;;;;;;5072703;28;20055;-87
2021/07/01 06:35:21;;;;;;;27.98;14.20;;;15.40;93.20;;;;;;5071937;28;20157;-87
2021/07/01 06:37:48;;;;;;;23.75;12.23;;;15.40;93.50;;;;;;5071715;28;20117;-86
2021/07/01 06:40:15;;;;;;;28.77;13.32;;;15.40;93.40;;;;;;5069037;28;20183;-86
2021/07/01 06:42:46;;;;;;;26.92;12.55;;;15.40;93.60;;;;;;5071321;28;20052;-86
2021/07/01 06:45:12;;;;;;;27.27;12.80;;;15.40;93.50;;;;;;5067438;28;20064;-87
2021/07/01 06:47:39;;;;;;;29.23;12.35;;;15.40;93.40;;;;;;5071240;28;20428;-86
2021/07/01 06:50:05;;;;;;;35.10;16.42;;;15.50;93.40;;;;;;5069485;28;20140;-86
2021/07/01 06:52:32;;;;;;;26.85;13.35;;;15.50;93.80;;;;;;5071878;28;20052;-86
2021/07/01 06:54:58;;;;;;;28.83;12.60;;;15.50;93.70;;;;;;5072867;28;20052;-86
2021/07/01 06:57:25;;;;;;;26.02;12.65;;;15.50;93.60;;;;;;5071089;28;20048;-87
2021/07/01 06:59:51;;;;;;;22.98;12.88;;;15.50;93.40;;;;;;5072673;28;20052;-87
2021/07/01 07:02:18;;;;;;;26.35;14.32;;;15.50;93.40;;;;;;5072764;28;20044;-87
2021/07/01 07:04:45;;;;;;;26.13;14.65;;;15.50;93.60;;;;;;5072119;28;20079;-87
2021/07/01 07:07:11;;;;;;;28.20;15.25;;;15.50;93.70;;;;;;5072265;28;20458;-87
2021/07/01 07:09:38;;;;;;;24.65;14.07;;;15.60;93.90;;;;;;5072468;28;20049;-87
2021/07/01 07:12:04;;;;;;;28.15;14.95;;;15.60;93.90;;;;;;5071662;28;20490;-88
2021/07/01 07:14:30;;;;;;;27.85;15.32;;;15.60;93.90;;;;;;5072362;28;20053;-87
2021/07/01 07:16:58;;;;;;;23.08;12.32;;;15.60;93.90;;;;;;5072698;28;20060;-87
2021/07/01 07:19:26;;;;;;;27.20;15.18;;;15.70;93.80;;;;;;5071693;28;20488;-88
2021/07/01 07:21:52;;;;;;;23.65;14.05;;;15.70;93.90;;;;;;5072492;28;20048;-88
2021/07/01 07:24:20;;;;;;;22.25;13.85;;;15.70;93.90;;;;;;5072948;28;20078;-89
2021/07/01 07:26:53;;;;;;;31.65;16.77;;;15.70;93.90;;;;;;5071910;28;20130;-88
2021/07/01 07:29:21;;;;;;;29.67;16.05;;;15.80;94.20;;;;;;5072680;28;20571;-87
2021/07/01 07:31:47;;;;;;;30.30;15.77;;;15.80;94.20;;;;;;5071235;28;20151;-88
2021/07/01 07:34:13;;;;;;;37.55;17.73;;;15.90;94.30;;;;;;5072767;28;20052;-88
2021/07/01 07:36:38;;;;;;;30.33;16.63;;;15.90;94.40;;;;;;5072146;28;20127;-88
2021/07/01 07:39:06;;;;;;;28.08;15.15;;;15.90;94.40;;;;;;5071985;28;20044;-88
2021/07/01 07:41:32;;;;;;;27.48;15.85;;;15.90;94.20;;;;;;5072491;28;20132;-87
2021/07/01 07:43:58;;;;;;;34.35;17.15;;;16.00;94.20;;;;;;5075793;28;20104;-89
2021/07/01 07:46:26;;;;;;;28.67;16.95;;;16.00;94.30;;;;;;5075708;28;20384;-90
2021/07/01 07:48:52;;;;;;;34.42;17.50;;;16.00;94.40;;;;;;5076058;28;20044;-90
2021/07/01 07:51:25;;;;;;;32.13;17.17;;;16.10;94.40;;;;;;5075757;28;20450;-88
2021/07/01 07:54:00;;;;;;;33.87;16.77;;;16.10;94.40;;;;;;5075960;28;20172;-90
2021/07/01 07:56:27;;;;;;;28.95;16.80;;;16.10;94.40;;;;;;5076380;28;20302;-88
2021/07/01 07:58:55;;;;;;;32.35;16.85;;;16.20;94.40;;;;;;5076366;28;20048;-90
2021/07/01 08:01:22;;;;;;;31.33;17.55;;;16.10;94.40;;;;;;5074933;28;20051;-88
2021/07/01 08:03:52;;;;;;;34.80;18.85;;;16.20;94.30;;;;;;5076120;28;20125;-87
2021/07/01 08:06:23;;;;;;;33.75;17.98;;;16.20;94.50;;;;;;5076020;28;20044;-88
2021/07/01 08:08:52;;;;;;;36.13;18.23;;;16.20;94.50;;;;;;5075299;28;20485;-90
2021/07/01 08:11:19;;;;;;;34.50;17.80;;;16.20;94.50;;;;;;5075481;28;20386;-89
2021/07/01 08:13:47;;;;;;;38.40;19.90;;;16.30;94.50;;;;;;5074899;28;20044;-88
2021/07/01 08:16:13;;;;;;;29.83;17.02;;;16.30;94.60;;;;;;5075731;28;20044;-91
2021/07/01 08:18:41;;;;;;;33.80;18.40;;;16.30;94.40;;;;;;5075516;28;20094;-88
2021/07/01 08:21:09;;;;;;;31.08;17.52;;;16.30;94.50;;;;;;5074647;28;20045;-89
2021/07/01 08:23:35;;;;;;;37.72;18.40;;;16.40;94.40;;;;;;5074986;28;20072;-88
2021/07/01 08:26:03;;;;;;;37.08;20.15;;;16.40;94.40;;;;;;5075566;28;20073;-88
2021/07/01 08:28:30;;;;;;;35.25;19.25;;;16.40;94.40;;;;;;5074061;28;20049;-89
2021/07/01 08:31:10;;;;;;;35.30;18.45;;;16.40;94.50;;;;;;5074956;28;20106;-88
2021/07/01 08:33:39;;;;;;;36.90;20.17;;;16.40;94.50;;;;;;5075098;28;20050;-91
2021/07/01 08:36:08;;;;;;;29.58;17.25;;;16.50;94.70;;;;;;5074337;28;20546;-88
2021/07/01 08:38:37;;;;;;;34.83;18.88;;;16.40;94.50;;;;;;5074937;28;20040;-89
2021/07/01 08:41:27;;;;;;;33.45;19.55;;;16.50;94.40;;;;;;5074642;28;20575;-89
2021/07/01 08:43:55;;;;;;;33.20;18.45;;;16.50;94.50;;;;;;5074093;28;20135;-90
2021/07/01 08:46:38;;;;;;;34.67;20.50;;;16.50;94.40;;;;;;5075019;28;20124;-88
2021/07/01 08:49:10;;;;;;;37.00;18.75;;;16.60;94.60;;;;;;5074434;28;20420;-89
2021/07/01 08:51:45;;;;;;;37.00;19.70;;;16.60;94.70;;;;;;5070289;28;20066;-90
2021/07/01 08:54:14;;;;;;;25.48;15.23;;;16.70;94.50;;;;;;5074167;28;20067;-90
2021/07/01 08:56:41;;;;;;;30.15;17.48;;;16.70;94.10;;;;;;5073713;28;20147;-90
2021/07/01 08:59:09;;;;;;;36.50;19.15;;;16.70;94.00;;;;;;5074911;28;20052;-91
2021/07/01 09:01:40;;;;;;;36.63;20.42;;;16.70;94.00;;;;;;5073544;28;20488;-85
2021/07/01 09:04:09;;;;;;;28.27;15.93;;;16.70;94.20;;;;;;5062562;28;20048;-85
2021/07/01 09:06:37;;;;;;;30.45;18.63;;;16.80;93.90;;;;;;5069736;28;20057;-85
2021/07/01 09:09:05;;;;;;;33.30;18.63;;;16.80;93.90;;;;;;5070808;28;20047;-86
2021/07/01 09:11:36;;;;;;;32.17;18.50;;;16.80;93.90;;;;;;5073024;28;20051;-88
2021/07/01 09:14:08;;;;;;;41.38;21.15;;;16.90;93.80;;;;;;5074191;28;20051;-89
2021/07/01 09:16:35;;;;;;;34.70;19.67;;;16.90;94.10;;;;;;5073523;28;20560;-86
2021/07/01 09:19:01;;;;;;;37.03;20.50;;;16.90;94.10;;;;;;5071181;28;20048;-86
2021/07/01 09:21:28;;;;;;;37.75;20.75;;;16.90;94.10;;;;;;5070356;28;20109;-87
2021/07/01 09:23:54;;;;;;;33.42;18.67;;;17.00;94.30;;;;;;5071459;28;20055;-86
2021/07/01 09:26:24;;;;;;;34.53;20.17;;;17.00;94.50;;;;;;5071706;28;20087;-87
2021/07/01 09:28:51;;;;;;;36.13;21.35;;;17.10;94.20;;;;;;5073489;28;20048;-86
2021/07/01 09:31:20;;;;;;;37.33;19.50;;;17.10;94.30;;;;;;5072527;28;20496;-88
2021/07/01 09:33:48;;;;;;;34.13;19.70;;;17.10;94.30;;;;;;5072759;28;20464;-87
2021/07/01 09:36:18;;;;;;;39.22;20.80;;;17.20;94.20;;;;;;5072767;28;20052;-90
2021/07/01 09:38:46;;;;;;;35.38;19.70;;;17.20;94.10;;;;;;5071942;28;20053;-89
2021/07/01 09:41:14;;;;;;;34.25;20.55;;;17.20;94.30;;;;;;5072684;28;20446;-89
2021/07/01 09:43:42;;;;;;;35.67;20.27;;;17.30;94.30;;;;;;5073063;28;20499;-89
2021/07/01 09:46:13;;;;;;;37.63;20.45;;;17.30;94.50;;;;;;5072508;28;20049;-90
2021/07/01 09:48:46;;;;;;;32.63;18.88;;;17.40;94.60;;;;;;5073099;28;20052;-90
2021/07/01 09:51:12;;;;;;;31.60;18.90;;;17.40;94.40;;;;;;5072743;28;20055;-89
2021/07/01 09:53:39;;;;;;;35.13;18.90;;;17.50;94.30;;;;;;5073049;28;20052;-91
2021/07/01 09:56:09;;;;;;;32.65;18.52;;;17.50;94.20;;;;;;5073527;28;20055;-89
2021/07/01 09:58:49;;;;;;;32.72;18.20;;;17.60;94.00;;;;;;5072924;28;20381;-86
2021/07/01 10:01:37;;;;;;;26.13;16.95;;;17.60;93.70;;;;;;5072191;28;20052;-89
2021/07/01 10:04:04;;;;;;;33.42;18.95;;;17.70;93.60;;;;;;5072827;28;20071;-90
2021/07/01 10:06:30;;;;;;;35.25;19.00;;;17.70;93.70;;;;;;5071280;28;20177;-89
2021/07/01 10:08:55;;;;;;;31.15;18.95;;;17.70;93.70;;;;;;5072200;28;20168;-88
2021/07/01 10:11:41;;;;;;;33.22;18.27;;;17.80;93.80;;;;;;5071728;28;20131;-89
2021/07/01 10:14:14;;;;;;;32.28;17.23;;;17.80;93.70;;;;;;5071123;28;20047;-87
2021/07/01 10:16:40;;;;;;;29.25;17.42;;;17.90;93.80;;;;;;5072020;28;20053;-88
2021/07/01 10:19:08;;;;;;;28.05;17.52;;;17.90;93.80;;;;;;5072698;28;20052;-88
2021/07/01 10:21:37;;;;;;;33.00;18.27;;;18.00;93.60;;;;;;5071085;28;20141;-87
2021/07/01 10:24:09;;;;;;;31.50;16.90;;;18.00;93.70;;;;;;5071572;28;20056;-87
2021/07/01 10:26:40;;;;;;;29.38;17.70;;;18.10;93.70;;;;;;5072374;28;20064;-89
2021/07/01 10:29:06;;;;;;;28.63;16.60;;;18.10;93.50;;;;;;5071728;28;20559;-88
2021/07/01 10:31:55;;;;;;;29.45;17.55;;;18.20;93.30;;;;;;5072524;28;20139;-90
2021/07/01 10:34:22;;;;;;;24.60;16.42;;;18.20;93.20;;;;;;5072180;28;20497;-86
2021/07/01 10:37:09;;;;;;;30.65;17.60;;;18.20;93.00;;;;;;5073624;28;20056;-93
2021/07/01 10:39:35;;;;;;;33.63;17.73;;;18.20;93.10;;;;;;5072639;28;20044;-85
2021/07/01 10:42:01;;;;;;;28.58;17.38;;;18.20;93.10;;;;;;5071859;28;20056;-83
2021/07/01 10:44:27;;;;;;;34.13;18.25;;;18.30;93.00;;;;;;5072719;28;20122;-89
2021/07/01 10:46:52;;;;;;;27.88;16.42;;;18.30;93.20;;;;;;5073670;28;20048;-94
2021/07/01 10:49:35;;;;;;;28.60;16.83;;;18.30;93.00;;;;;;5074525;28;20049;-94
2021/07/01 10:52:03;;;;;;;28.37;19.03;;;18.30;93.00;;;;;;5074231;28;20056;-92
2021/07/01 10:54:29;;;;;;;30.20;16.52;;;18.30;93.50;;;;;;5075112;28;20052;-95
2021/07/01 10:57:06;;;;;;;30.65;18.10;;;18.40;93.20;;;;;;5073125;28;20044;-95
2021/07/01 10:59:46;;;;;;;24.40;15.48;;;18.40;93.30;;;;;;5071875;28;20400;-94
2021/07/01 11:02:21;;;;;;;30.05;17.55;;;18.40;92.90;;;;;;5073628;28;20113;-95
2021/07/01 11:04:52;;;;;;;27.45;17.23;;;18.50;93.20;;;;;;5073281;28;20491;-92
2021/07/01 11:07:19;;;;;;;27.08;16.98;;;18.50;93.10;;;;;;5067246;28;20052;-93
2021/07/01 11:09:47;;;;;;;28.67;17.30;;;18.50;93.20;;;;;;5054835;28;20052;-94
2021/07/01 11:12:12;;;;;;;27.80;17.10;;;18.50;93.20;;;;;;5054610;28;20056;-93
2021/07/01 11:14:50;;;;;;;27.83;16.88;;;18.60;93.00;;;;;;5072877;28;20047;-95
2021/07/01 11:17:16;;;;;;;29.30;18.00;;;18.60;92.80;;;;;;5075799;28;20442;-94
2021/07/01 11:19:46;;;;;;;28.77;18.08;;;18.60;92.90;;;;;;5077662;28;20052;-94
2021/07/01 11:22:14;;;;;;;27.52;17.63;;;18.60;93.00;;;;;;5076150;28;20070;-93
2021/07/01 11:24:45;;;;;;;29.33;18.67;;;18.70;93.00;;;;;;5076819;28;20441;-95
2021/07/01 11:27:11;;;;;;;29.00;17.38;;;18.70;93.10;;;;;;5078491;28;20052;-93
2021/07/01 11:29:47;;;;;;;23.85;15.93;;;18.80;93.40;;;;;;5076813;28;20045;-95
2021/07/01 11:32:20;;;;;;;25.02;17.02;;;18.80;92.80;;;;;;5077613;28;20509;-96
2021/07/01 11:34:50;;;;;;;27.63;16.17;;;18.80;93.20;;;;;;5077907;28;20557;-95
2021/07/01 11:37:35;;;;;;;25.45;16.75;;;18.90;93.10;;;;;;5077896;28;20044;-94
2021/07/01 11:40:20;;;;;;;24.98;16.05;;;19.00;93.10;;;;;;5078303;28;20049;-94
2021/07/01 11:42:46;;;;;;;21.98;15.73;;;19.00;92.80;;;;;;5078138;28;20045;-96
2021/07/01 11:45:13;;;;;;;24.67;15.98;;;19.10;92.60;;;;;;5078024;28;20104;-93
2021/07/01 11:47:41;;;;;;;26.45;16.08;;;19.10;92.40;;;;;;5078087;28;20068;-95
2021/07/01 11:50:09;;;;;;;24.88;15.13;;;19.10;92.30;;;;;;5077396;28;20123;-95
2021/07/01 11:52:36;;;;;;;23.10;15.35;;;19.20;92.40;;;;;;5076918;28;20052;-92
2021/07/01 11:55:03;;;;;;;26.02;16.25;;;19.10;92.10;;;;;;5076147;28;20048;-91
2021/07/01 11:57:30;;;;;;;27.23;16.60;;;19.20;92.00;;;;;;5079368;28;20056;-91
2021/07/01 11:59:56;;;;;;;23.65;16.25;;;19.20;92.20;;;;;;5071858;28;20049;-91
2021/07/01 12:02:24;;;;;;;26.15;16.63;;;19.30;92.30;;;;;;5076414;28;20052;-91
2021/07/01 12:04:51;;;;;;;24.95;15.57;;;19.30;92.30;;;;;;5076099;28;20106;-92
2021/07/01 12:07:22;;;;;;;22.10;14.75;;;19.30;92.10;;;;;;5075916;28;20048;-91
2021/07/01 12:09:49;;;;;;;24.35;15.70;;;19.30;91.80;;;;;;5055907;28;20416;-90
2021/07/01 12:28:24;;;;;;;23.48;15.80;;;19.50;92.00;;;;;;5113506;27;1283460;-95
2021/07/01 12:31:04;;;;;;;27.20;15.70;;;19.50;91.20;;;;;;5131590;27;20043;-91
2021/07/01 12:33:53;;;;;;;32.35;16.08;;;19.60;91.40;;;;;;5137353;27;20053;-90
2021/07/01 12:36:23;;;;;;;25.63;16.33;;;19.60;91.50;;;;;;5135751;27;20047;-86
2021/07/01 12:39:05;;;;;;;23.95;15.95;;;19.60;91.70;;;;;;5138221;27;20059;-86
2021/07/01 12:41:44;;;;;;;26.40;16.88;;;19.60;91.80;;;;;;5136856;27;20057;-84
2021/07/01 12:44:15;;;;;;;24.63;16.40;;;19.60;92.00;;;;;;5132283;27;20051;-86
2021/07/01 12:49:15;;;;;;;20.08;14.45;;;19.70;92.10;;;;;;5141696;27;20402;-84
2021/07/01 12:51:42;;;;;;;25.77;16.48;;;19.70;91.70;;;;;;5142833;27;20046;-85
2021/07/01 12:54:37;;;;;;;29.80;15.73;;;19.80;91.70;;;;;;5143962;27;20490;-88
2021/07/01 12:57:08;;;;;;;24.33;14.95;;;19.80;91.80;;;;;;5139315;27;20054;-88